Time;durP1;ratioP1;P1;durP2;ratioP2;P2;SDS_P1;SDS_P2;PMS_P1;PMS_P2;Temp;Humidity;BMP_temperature;BMP_pressure;BME280_temperature;BME280_humidity;BME280_pressure;Samples;Min_cycle;Max_cycle;Signal;HPM_P1;HPM_P2
2023/01/17 00:00:26;;;;;;;15.18;8.15;;;24.10;57.50;;;;;;5074740;28;20118;-79
2023/01/17 00:02:52;;;;;;;11.45;7.57;;;24.10;57.20;;;;;;5115428;28;20024;-80
2023/01/17 00:10:47;;;;;;;11.52;6.78;;;23.90;57.70;;;;;;5112950;28;20032;-80
2023/01/17 00:13:13;;;;;;;13.18;8.43;;;24.00;57.30;;;;;;5115188;28;20067;-79
2023/01/17 00:15:39;;;;;;;8.60;5.22;;;24.00;57.70;;;;;;5108599;28;20439;-79
2023/01/17 00:18:05;;;;;;;9.30;6.97;;;24.00;57.40;;;;;;5113697;28;20110;-79
2023/01/17 00:26:09;;;;;;;11.15;6.95;;;23.90;57.70;;;;;;5094484;28;20024;-79
2023/01/17 01:35:53;;;;;;;3.83;3.10;;;24.00;56.80;;;;;;5097328;28;20090;-80
2023/01/17 01:38:22;;;;;;;8.90;5.85;;;24.00;56.80;;;;;;5087338;28;20054;-80
2023/01/17 01:40:54;;;;;;;3.70;2.90;;;24.00;56.70;;;;;;5086711;28;20180;-80
2023/01/17 01:43:40;;;;;;;7.32;4.88;;;24.00;56.70;;;;;;5072163;28;20081;-79
2023/01/17 01:46:08;;;;;;;6.03;4.88;;;24.00;56.70;;;;;;5019238;28;20158;-80
2023/01/17 01:48:46;;;;;;;8.30;5.05;;;24.00;56.70;;;;;;5049355;28;20370;-80
2023/01/17 01:51:18;;;;;;;8.35;4.85;;;24.00;56.70;;;;;;5025503;28;20042;-79
2023/01/17 01:53:49;;;;;;;6.15;4.53;;;24.00;56.70;;;;;;5049937;28;20028;-80
2023/01/17 01:56:16;;;;;;;3.67;2.15;;;24.00;56.60;;;;;;5049894;28;20040;-80
2023/01/17 01:58:49;;;;;;;5.03;3.90;;;23.90;55.80;;;;;;5033495;28;20037;-79
2023/01/17 02:01:16;;;;;;;11.27;5.55;;;24.00;56.50;;;;;;5033551;28;20061;-79
2023/01/17 02:03:44;;;;;;;11.93;7.05;;;23.80;56.40;;;;;;4994525;28;20084;-79
2023/01/17 02:06:49;;;;;;;11.40;7.82;;;23.90;56.50;;;;;;5013514;28;20518;-80
2023/01/17 02:09:16;;;;;;;9.35;5.57;;;23.90;56.60;;;;;;5018802;28;20048;-80
2023/01/17 02:11:44;;;;;;;8.70;5.30;;;23.80;56.50;;;;;;5040385;28;20026;-80
2023/01/17 02:14:19;;;;;;;7.72;4.70;;;23.90;56.50;;;;;;5009582;28;20034;-80
2023/01/17 02:17:15;;;;;;;12.95;6.53;;;23.90;56.70;;;;;;5040645;28;20471;-80
2023/01/17 02:19:44;;;;;;;9.20;6.35;;;23.80;56.50;;;;;;5029886;28;20037;-80
2023/01/17 02:22:34;;;;;;;8.88;5.78;;;23.90;56.10;;;;;;5018668;28;20038;-79
2023/01/17 02:25:37;;;;;;;8.55;5.88;;;23.90;56.70;;;;;;5072208;28;20075;-80
2023/01/17 02:28:33;;;;;;;9.90;6.97;;;23.80;56.60;;;;;;5094448;28;20388;-80
2023/01/17 02:31:10;;;;;;;10.63;7.93;;;23.70;55.00;;;;;;5103884;28;20779;-80
2023/01/17 02:33:47;;;;;;;9.63;6.97;;;23.70;56.60;;;;;;5112718;28;20035;-80
2023/01/17 02:36:29;;;;;;;8.95;6.10;;;23.80;56.70;;;;;;5085787;28;20020;-80
2023/01/17 02:39:22;;;;;;;10.15;7.28;;;23.60;56.40;;;;;;5079513;28;20373;-80
2023/01/17 02:41:54;;;;;;;12.25;7.72;;;23.60;56.60;;;;;;5029055;28;20045;-79
2023/01/17 02:44:21;;;;;;;13.45;9.40;;;23.70;57.00;;;;;;5028815;28;20037;-80
2023/01/17 02:46:54;;;;;;;13.18;8.20;;;23.60;56.90;;;;;;5027402;28;20045;-80
2023/01/17 02:49:25;;;;;;;12.85;8.07;;;23.60;57.20;;;;;;5012558;28;20045;-81
2023/01/17 02:52:00;;;;;;;12.20;8.65;;;23.50;57.20;;;;;;5026051;28;20029;-81
2023/01/17 02:54:53;;;;;;;10.65;8.20;;;23.60;57.00;;;;;;5029421;28;20044;-81
2023/01/17 02:57:22;;;;;;;13.70;8.95;;;23.50;57.50;;;;;;5029298;28;20046;-81
2023/01/17 03:00:39;;;;;;;15.40;8.50;;;23.30;57.50;;;;;;5029125;28;20044;-82
2023/01/17 03:03:33;;;;;;;13.43;9.10;;;23.30;57.90;;;;;;4989966;28;20494;-82
2023/01/17 03:06:10;;;;;;;16.35;9.13;;;23.20;58.30;;;;;;4997989;28;20037;-81
2023/01/17 03:08:40;;;;;;;13.65;8.07;;;23.10;58.60;;;;;;5008312;28;20057;-81
2023/01/17 03:11:10;;;;;;;12.68;8.00;;;23.20;58.70;;;;;;5009217;28;20030;-78
2023/01/17 03:13:36;;;;;;;14.25;8.13;;;23.10;58.80;;;;;;5009606;28;20442;-81
2023/01/17 03:16:06;;;;;;;13.18;8.40;;;23.10;58.90;;;;;;5005931;28;20041;-82
2023/01/17 03:18:33;;;;;;;11.10;7.57;;;23.10;58.70;;;;;;5018628;28;20061;-81
2023/01/17 03:21:00;;;;;;;13.10;8.70;;;23.20;58.40;;;;;;5027686;28;20060;-81
2023/01/17 03:23:26;;;;;;;12.40;8.88;;;23.10;58.50;;;;;;5029189;28;20636;-81
2023/01/17 03:25:52;;;;;;;13.75;8.85;;;23.20;58.60;;;;;;5032916;28;20033;-81
2023/01/17 03:28:18;;;;;;;13.73;8.98;;;23.00;58.60;;;;;;5033481;28;20132;-82
2023/01/17 03:30:43;;;;;;;14.50;9.57;;;23.00;58.60;;;;;;5051066;28;20045;-82
2023/01/17 03:33:09;;;;;;;15.57;8.95;;;23.00;58.70;;;;;;5052803;28;20053;-82
2023/01/17 03:35:35;;;;;;;14.82;10.02;;;23.00;58.70;;;;;;5044556;28;20037;-81
2023/01/17 03:38:01;;;;;;;16.30;9.10;;;22.90;58.70;;;;;;5033032;28;20049;-81
2023/01/17 03:40:27;;;;;;;14.05;9.63;;;22.90;58.80;;;;;;5060444;28;20044;-82
2023/01/17 03:42:53;;;;;;;17.33;9.85;;;22.80;58.80;;;;;;5075375;28;20527;-81
2023/01/17 03:45:19;;;;;;;15.15;10.45;;;22.80;58.80;;;;;;5074458;28;20437;-81
2023/01/17 03:47:45;;;;;;;11.98;8.60;;;22.80;58.80;;;;;;5112508;28;20037;-82
2023/01/17 03:50:12;;;;;;;12.27;8.73;;;22.80;58.90;;;;;;5109771;28;20040;-82
2023/01/17 03:52:38;;;;;;;12.02;8.43;;;22.70;58.80;;;;;;5076870;28;20091;-80
2023/01/17 03:55:05;;;;;;;15.07;9.35;;;22.80;58.90;;;;;;5090816;28;20046;-82
2023/01/17 03:57:31;;;;;;;11.80;8.68;;;22.70;58.90;;;;;;5074273;28;20057;-81
2023/01/17 03:59:57;;;;;;;14.23;9.98;;;22.60;58.80;;;;;;5073027;28;20041;-80
2023/01/17 04:02:23;;;;;;;13.77;8.73;;;22.70;58.90;;;;;;5104940;28;20114;-81
2023/01/17 04:04:50;;;;;;;13.65;8.70;;;22.70;59.00;;;;;;5113578;28;20111;-81
2023/01/17 04:07:16;;;;;;;12.45;9.27;;;22.70;58.90;;;;;;5091396;28;20131;-81
2023/01/17 04:09:42;;;;;;;15.27;10.00;;;22.70;58.70;;;;;;5082417;28;20033;-81
2023/01/17 04:12:08;;;;;;;13.57;9.20;;;22.60;58.60;;;;;;5075172;28;20086;-82
2023/01/17 04:14:34;;;;;;;14.52;9.18;;;22.80;58.70;;;;;;5083398;28;20017;-80
2023/01/17 04:17:01;;;;;;;14.15;8.88;;;22.70;58.80;;;;;;5097241;28;20034;-81
2023/01/17 04:19:27;;;;;;;12.05;8.48;;;22.80;58.80;;;;;;5115357;28;20027;-81
2023/01/17 04:21:53;;;;;;;14.60;9.13;;;22.60;58.80;;;;;;5084372;28;20043;-82
2023/01/17 04:24:19;;;;;;;13.45;10.35;;;22.70;58.90;;;;;;5074514;28;20032;-81
2023/01/17 04:26:45;;;;;;;14.55;8.63;;;22.60;58.70;;;;;;5074129;28;20029;-82
2023/01/17 04:29:11;;;;;;;13.93;8.90;;;22.70;58.90;;;;;;5073761;28;20039;-82
2023/01/17 04:31:37;;;;;;;16.17;10.13;;;22.60;58.70;;;;;;5088935;28;20042;-81
2023/01/17 04:34:03;;;;;;;13.60;9.07;;;22.60;58.60;;;;;;5111532;28;20035;-80
2023/01/17 04:36:29;;;;;;;14.95;9.30;;;22.70;58.60;;;;;;5091738;28;20032;-82
2023/01/17 04:38:55;;;;;;;14.13;9.30;;;22.70;58.40;;;;;;5074049;28;20500;-81
2023/01/17 04:41:21;;;;;;;15.55;9.68;;;22.80;58.30;;;;;;5074403;28;20560;-82
2023/01/17 04:43:46;;;;;;;13.15;7.95;;;22.80;58.30;;;;;;5074071;28;20326;-81
2023/01/17 04:46:12;;;;;;;13.48;9.18;;;22.70;58.10;;;;;;5081055;28;20059;-82
2023/01/17 04:48:38;;;;;;;11.15;6.95;;;22.70;57.70;;;;;;5113258;28;20100;-82
2023/01/17 04:51:05;;;;;;;14.07;9.50;;;22.80;58.10;;;;;;5102195;28;20456;-82
2023/01/17 04:53:31;;;;;;;15.15;9.38;;;22.70;58.20;;;;;;5074165;28;20044;-81
2023/01/17 04:55:57;;;;;;;11.70;7.55;;;22.80;58.10;;;;;;5088644;28;20480;-82
2023/01/17 04:58:23;;;;;;;15.07;9.15;;;22.80;58.10;;;;;;5114660;28;20054;-81
2023/01/17 05:00:50;;;;;;;9.18;6.45;;;22.70;58.20;;;;;;5113639;28;20042;-82
2023/01/17 05:03:18;;;;;;;10.18;7.38;;;22.80;58.40;;;;;;5100014;28;20146;-81
2023/01/17 05:05:44;;;;;;;12.52;8.52;;;22.90;58.10;;;;;;5073351;28;20416;-80
2023/01/17 05:08:10;;;;;;;16.27;8.68;;;23.00;57.40;;;;;;5074593;28;20103;-80
2023/01/17 05:10:36;;;;;;;15.32;7.63;;;22.90;57.50;;;;;;5074244;28;20445;-81
2023/01/17 05:13:02;;;;;;;12.55;8.98;;;22.90;57.70;;;;;;5073250;28;20441;-82
2023/01/17 05:15:28;;;;;;;14.05;8.68;;;22.90;57.60;;;;;;5072694;28;20471;-81
2023/01/17 05:17:55;;;;;;;15.75;9.75;;;22.90;57.80;;;;;;5106100;28;20031;-81
2023/01/17 05:20:24;;;;;;;13.30;8.52;;;23.00;57.90;;;;;;5114777;28;20036;-82
2023/01/17 05:22:54;;;;;;;14.40;8.75;;;22.90;58.10;;;;;;5072142;28;20043;-81
2023/01/17 05:25:25;;;;;;;12.10;8.90;;;22.90;58.10;;;;;;5113352;28;20084;-82
2023/01/17 05:27:52;;;;;;;12.85;8.38;;;22.80;58.00;;;;;;5083584;28;20116;-82
2023/01/17 05:30:18;;;;;;;14.40;9.23;;;22.70;58.20;;;;;;5080912;28;20460;-82
2023/01/17 05:32:48;;;;;;;14.43;8.07;;;22.80;57.10;;;;;;5105161;28;20093;-81
2023/01/17 05:35:16;;;;;;;13.35;7.63;;;22.70;58.40;;;;;;5098172;28;20039;-81
2023/01/17 05:37:47;;;;;;;14.00;8.75;;;22.80;58.10;;;;;;5072607;28;20024;-82
2023/01/17 05:40:25;;;;;;;12.98;7.72;;;22.70;58.20;;;;;;5076067;28;20052;-80
2023/01/17 05:42:53;;;;;;;16.05;9.43;;;22.60;58.40;;;;;;5054226;28;20032;-79
2023/01/17 05:45:20;;;;;;;16.70;12.95;;;22.70;58.60;;;;;;5072721;28;20049;-81
2023/01/17 05:47:48;;;;;;;12.98;11.40;;;22.50;53.40;;;;;;5080611;28;20081;-80
2023/01/17 05:50:20;;;;;;;15.10;12.73;;;22.50;51.70;;;;;;5080029;28;20071;-81
2023/01/17 05:52:54;;;;;;;13.35;9.77;;;22.60;49.10;;;;;;5095776;28;20123;-80
2023/01/17 05:55:21;;;;;;;8.82;7.20;;;22.80;47.40;;;;;;5072937;28;20085;-78
2023/01/17 05:57:47;;;;;;;7.50;6.10;;;22.70;46.60;;;;;;5101658;28;20404;-78
2023/01/17 06:00:14;;;;;;;9.25;7.13;;;22.80;45.60;;;;;;5102642;28;20114;-80
2023/01/17 06:02:40;;;;;;;12.38;8.38;;;22.80;46.80;;;;;;5089501;28;20046;-80
2023/01/17 06:05:06;;;;;;;10.10;9.00;;;22.80;48.50;;;;;;5099896;28;20038;-76
2023/01/17 06:07:33;;;;;;;12.07;9.85;;;22.70;48.90;;;;;;5092060;28;20135;-76
2023/01/17 06:09:59;;;;;;;13.68;10.45;;;22.80;47.40;;;;;;5093517;28;20881;-78
2023/01/17 06:12:25;;;;;;;22.92;13.52;;;22.80;45.60;;;;;;5095054;28;20032;-78
2023/01/17 06:14:51;;;;;;;22.77;14.55;;;22.80;46.90;;;;;;5078822;28;20028;-77
2023/01/17 06:17:17;;;;;;;14.65;9.20;;;22.80;46.70;;;;;;5072431;28;20525;-76
2023/01/17 06:19:44;;;;;;;12.77;9.15;;;22.90;49.70;;;;;;5074043;28;20048;-76
2023/01/17 06:22:10;;;;;;;12.48;8.27;;;23.00;62.30;;;;;;5083120;28;20020;-76
2023/01/17 06:24:36;;;;;;;12.25;7.65;;;23.10;58.30;;;;;;5072812;28;20036;-79
2023/01/17 06:27:02;;;;;;;10.85;6.97;;;23.20;57.90;;;;;;5071998;28;20040;-76
2023/01/17 06:29:28;;;;;;;11.60;7.65;;;23.20;58.60;;;;;;5089038;27;20029;-78
2023/01/17 06:31:54;;;;;;;9.02;5.47;;;23.30;57.60;;;;;;5072540;28;20058;-75
2023/01/17 06:34:20;;;;;;;9.57;6.18;;;23.20;55.90;;;;;;5072019;28;20559;-79
2023/01/17 06:36:46;;;;;;;8.55;6.60;;;23.20;55.40;;;;;;5077772;28;20035;-78
2023/01/17 06:39:12;;;;;;;13.27;7.65;;;23.20;54.60;;;;;;5096443;28;20063;-77
2023/01/17 06:41:37;;;;;;;10.93;7.15;;;23.30;53.20;;;;;;5104040;28;20027;-78
2023/01/17 06:44:06;;;;;;;10.48;6.63;;;23.30;53.20;;;;;;5078906;28;20028;-78
2023/01/17 06:46:32;;;;;;;10.05;6.53;;;23.30;53.30;;;;;;5091888;28;20031;-78
2023/01/17 06:48:58;;;;;;;10.02;7.60;;;23.20;52.50;;;;;;5089969;28;20404;-73
2023/01/17 06:51:24;;;;;;;12.70;6.90;;;23.10;50.80;;;;;;5080179;28;20108;-75
2023/01/17 06:53:50;;;;;;;13.68;8.23;;;23.30;51.50;;;;;;5071383;28;20503;-75
2023/01/17 06:56:16;;;;;;;11.43;8.57;;;23.10;52.30;;;;;;5089352;28;20461;-74
2023/01/17 06:58:42;;;;;;;14.60;8.13;;;23.20;50.50;;;;;;5085630;28;20117;-74
2023/01/17 07:01:13;;;;;;;13.15;7.78;;;23.10;50.90;;;;;;5097376;28;20031;-74
2023/01/17 07:03:40;;;;;;;13.45;9.43;;;23.10;53.10;;;;;;5106612;28;20019;-75
2023/01/17 07:06:06;;;;;;;10.45;7.63;;;23.10;51.30;;;;;;5081828;28;20024;-75
2023/01/17 07:08:31;;;;;;;11.45;7.95;;;23.10;52.60;;;;;;5071050;28;20052;-74
2023/01/17 07:11:01;;;;;;;12.80;7.95;;;23.10;54.20;;;;;;5068729;28;20040;-74
2023/01/17 07:13:29;;;;;;;14.60;8.05;;;23.10;56.10;;;;;;5072448;28;20040;-73
2023/01/17 07:15:58;;;;;;;14.30;8.10;;;23.20;56.20;;;;;;5100218;28;20102;-72
2023/01/17 07:18:24;;;;;;;11.30;7.97;;;23.30;56.10;;;;;;5098747;28;20026;-73
2023/01/17 07:20:51;;;;;;;12.50;7.18;;;23.10;55.70;;;;;;5090270;28;20115;-74
2023/01/17 07:23:22;;;;;;;12.52;8.18;;;23.10;54.70;;;;;;5096211;28;20475;-73
2023/01/17 07:25:57;;;;;;;11.80;8.10;;;23.20;54.30;;;;;;5112065;28;20126;-75
2023/01/17 07:28:24;;;;;;;11.23;7.70;;;23.00;55.50;;;;;;5111691;28;20040;-74
2023/01/17 07:30:50;;;;;;;10.85;7.88;;;23.10;56.90;;;;;;5107362;28;20035;-72
2023/01/17 07:33:16;;;;;;;12.93;7.93;;;23.00;56.70;;;;;;5091411;28;20028;-74
2023/01/17 07:35:43;;;;;;;8.38;6.53;;;23.00;56.10;;;;;;5083281;28;20043;-75
2023/01/17 07:38:13;;;;;;;11.57;7.30;;;22.90;54.70;;;;;;5070784;28;20027;-73
2023/01/17 07:40:39;;;;;;;10.85;7.78;;;22.90;57.40;;;;;;5070532;28;20060;-73
2023/01/17 07:43:14;;;;;;;13.88;7.45;;;22.90;58.10;;;;;;5071183;28;20065;-73
2023/01/17 07:45:49;;;;;;;10.82;7.30;;;22.90;58.10;;;;;;5070922;28;20093;-73
2023/01/17 07:48:17;;;;;;;11.85;7.95;;;22.90;57.50;;;;;;5083912;28;20472;-72
2023/01/17 07:50:43;;;;;;;10.50;7.20;;;22.90;58.90;;;;;;5100462;28;20029;-72
2023/01/17 07:53:10;;;;;;;13.45;7.10;;;22.80;59.30;;;;;;5072295;28;20423;-77
2023/01/17 07:55:36;;;;;;;11.95;7.50;;;22.90;58.90;;;;;;5089812;28;20036;-76
2023/01/17 07:58:02;;;;;;;11.63;7.38;;;22.80;58.90;;;;;;5090998;28;20332;-75
2023/01/17 08:00:28;;;;;;;14.30;7.72;;;22.90;59.60;;;;;;5068353;28;20040;-73
2023/01/17 08:02:58;;;;;;;14.43;8.05;;;22.70;59.80;;;;;;5068028;28;20425;-73
2023/01/17 08:05:24;;;;;;;12.07;7.82;;;22.70;59.90;;;;;;5065246;28;20064;-75
2023/01/17 08:07:51;;;;;;;12.07;7.25;;;22.80;59.90;;;;;;5047893;28;20045;-73
2023/01/17 08:10:17;;;;;;;11.85;7.95;;;22.70;60.10;;;;;;5031536;28;20041;-75
2023/01/17 08:12:47;;;;;;;9.05;6.25;;;22.70;59.10;;;;;;5065679;28;20052;-73
2023/01/17 08:15:15;;;;;;;12.48;7.80;;;22.70;60.60;;;;;;5035368;28;20066;-74
2023/01/17 08:17:45;;;;;;;10.65;6.80;;;22.70;59.00;;;;;;5052676;28;20115;-74
2023/01/17 08:20:12;;;;;;;7.70;5.05;;;22.60;59.10;;;;;;5080650;28;20036;-77
2023/01/17 08:22:38;;;;;;;10.88;6.70;;;22.70;58.70;;;;;;5061780;28;20539;-76
2023/01/17 08:25:04;;;;;;;9.90;6.55;;;22.60;60.40;;;;;;5021045;28;20662;-77
2023/01/17 08:27:30;;;;;;;8.38;5.47;;;22.70;61.30;;;;;;5075999;28;20048;-77
2023/01/17 08:29:56;;;;;;;12.05;7.53;;;22.70;59.50;;;;;;5036422;28;20044;-75
2023/01/17 08:32:22;;;;;;;8.13;5.97;;;22.90;57.00;;;;;;5087598;28;20185;-74
2023/01/17 08:34:48;;;;;;;11.05;6.00;;;23.00;50.40;;;;;;5091790;28;20138;-77
2023/01/17 08:37:14;;;;;;;16.77;9.63;;;23.10;54.10;;;;;;5066420;28;20044;-78
2023/01/17 08:39:40;;;;;;;8.18;5.68;;;23.40;56.30;;;;;;5073809;28;20086;-76
2023/01/17 08:42:06;;;;;;;10.07;7.68;;;23.50;47.80;;;;;;5077535;28;20043;-75
2023/01/17 08:44:32;;;;;;;8.45;7.25;;;23.50;45.20;;;;;;5108301;27;20379;-73
2023/01/17 08:46:58;;;;;;;9.93;7.38;;;23.60;44.40;;;;;;5108750;28;20032;-73
2023/01/17 08:49:24;;;;;;;7.68;6.90;;;23.60;44.70;;;;;;5082269;28;20032;-72
2023/01/17 08:51:51;;;;;;;7.45;6.13;;;23.70;43.00;;;;;;5086241;28;20028;-72
2023/01/17 08:54:17;;;;;;;11.38;7.68;;;23.60;44.10;;;;;;5070710;28;20111;-74
2023/01/17 08:56:45;;;;;;;9.15;6.35;;;23.70;52.50;;;;;;5082396;28;20040;-73
2023/01/17 08:59:12;;;;;;;11.80;6.90;;;23.80;55.60;;;;;;5072338;28;20036;-73
2023/01/17 09:01:41;;;;;;;10.35;7.07;;;23.70;56.20;;;;;;5097126;28;20081;-75
2023/01/17 09:04:08;;;;;;;7.65;5.40;;;23.60;56.70;;;;;;5099854;28;20035;-72
2023/01/17 09:06:39;;;;;;;8.43;6.18;;;23.60;56.50;;;;;;5086347;28;20040;-72
2023/01/17 09:09:06;;;;;;;10.45;5.70;;;23.60;57.20;;;;;;5075340;28;20048;-74
2023/01/17 09:11:32;;;;;;;11.00;6.65;;;23.70;55.80;;;;;;5109549;28;20479;-74
2023/01/17 09:14:00;;;;;;;9.05;5.38;;;23.60;57.70;;;;;;5111196;28;20383;-73
2023/01/17 09:16:27;;;;;;;9.68;5.95;;;23.60;57.80;;;;;;5084951;28;20358;-75
2023/01/17 09:18:54;;;;;;;7.47;5.63;;;23.70;57.60;;;;;;5073127;28;20055;-78
2023/01/17 09:21:20;;;;;;;9.88;6.85;;;23.80;57.80;;;;;;5071595;28;20107;-76
2023/01/17 09:23:46;;;;;;;12.15;7.88;;;23.70;57.60;;;;;;5110870;28;20082;-75
2023/01/17 09:26:22;;;;;;;10.43;6.80;;;23.70;56.90;;;;;;5107047;28;20016;-75
2023/01/17 09:28:48;;;;;;;8.70;6.45;;;23.70;58.30;;;;;;5112993;28;20433;-73
2023/01/17 09:31:15;;;;;;;8.85;5.05;;;23.70;57.20;;;;;;5089024;28;20377;-72
2023/01/17 09:33:41;;;;;;;9.18;6.38;;;23.70;58.30;;;;;;5072233;28;20036;-72
2023/01/17 09:36:09;;;;;;;8.98;6.45;;;23.80;57.80;;;;;;5072909;28;20060;-71
2023/01/17 09:38:36;;;;;;;8.23;6.57;;;23.70;58.10;;;;;;5072564;28;20032;-72
2023/01/17 09:41:09;;;;;;;9.48;6.95;;;23.70;54.10;;;;;;5089305;28;20111;-72
2023/01/17 09:44:05;;;;;;;8.55;6.80;;;23.80;47.00;;;;;;5110741;28;20027;-72
2023/01/17 09:46:37;;;;;;;12.55;7.88;;;23.70;46.80;;;;;;5027230;28;20052;-72
2023/01/17 09:49:13;;;;;;;12.98;7.93;;;23.80;47.20;;;;;;5042084;28;20041;-72
2023/01/17 09:51:39;;;;;;;9.98;7.05;;;23.80;46.80;;;;;;5010220;28;20053;-73
2023/01/17 09:54:09;;;;;;;11.60;7.40;;;23.80;47.90;;;;;;5010265;28;20030;-71
2023/01/17 09:56:41;;;;;;;9.43;6.88;;;23.90;49.40;;;;;;5031646;28;20063;-74
2023/01/17 09:59:23;;;;;;;9.80;5.77;;;23.80;48.80;;;;;;5047702;28;20510;-74
2023/01/17 10:01:56;;;;;;;7.70;5.97;;;23.90;57.40;;;;;;5049644;28;20385;-74
2023/01/17 10:04:34;;;;;;;6.95;5.53;;;24.00;57.00;;;;;;5043175;28;20120;-73
2023/01/17 10:07:27;;;;;;;8.15;6.15;;;23.90;57.60;;;;;;5035724;28;20448;-73
2023/01/17 10:10:01;;;;;;;8.50;5.55;;;24.00;57.70;;;;;;5029162;28;20135;-74
2023/01/17 10:12:53;;;;;;;7.22;5.30;;;24.10;58.10;;;;;;5049599;28;20052;-71
2023/01/17 10:15:42;;;;;;;7.68;4.97;;;24.00;62.20;;;;;;5048096;28;20481;-72
2023/01/17 10:18:35;;;;;;;10.90;5.70;;;24.20;54.40;;;;;;5049479;28;20489;-71
2023/01/17 10:21:31;;;;;;;6.90;4.93;;;24.30;49.70;;;;;;5013344;28;20041;-71
2023/01/17 10:24:22;;;;;;;8.00;6.05;;;24.30;50.10;;;;;;5061421;28;20035;-73
2023/01/17 10:26:55;;;;;;;8.10;5.72;;;24.10;50.90;;;;;;5076102;28;20113;-70
2023/01/17 10:29:22;;;;;;;;;;;24.20;47.50;;;;;;5072266;28;20173;-72
2023/01/17 10:31:57;;;;;;;9.73;6.07;;;24.10;44.10;;;;;;5075258;28;20548;-75
2023/01/17 10:34:43;;;;;;;10.82;6.55;;;24.10;44.90;;;;;;5104027;28;20028;-71
2023/01/17 10:37:29;;;;;;;6.95;5.40;;;24.10;45.90;;;;;;5091039;28;20040;-71
2023/01/17 10:40:01;;;;;;;6.80;4.97;;;24.10;46.30;;;;;;5092726;28;20072;-71
2023/01/17 10:42:52;;;;;;;15.20;5.75;;;24.30;46.40;;;;;;5084807;28;20047;-72
2023/01/17 10:45:29;;;;;;;8.88;6.47;;;24.20;43.00;;;;;;5078123;28;20110;-72
2023/01/17 10:48:08;;;;;;;6.53;4.10;;;24.10;43.20;;;;;;5110465;28;20046;-71
2023/01/17 10:50:53;;;;;;;8.68;6.13;;;24.00;43.60;;;;;;5079179;28;20040;-71
2023/01/17 10:53:57;;;;;;;6.80;5.72;;;23.90;43.10;;;;;;5082916;28;20091;-77
2023/01/17 10:56:27;;;;;;;11.90;5.78;;;23.90;41.30;;;;;;5112066;28;20062;-73
2023/01/17 10:59:15;;;;;;;8.05;6.00;;;23.70;42.40;;;;;;5094306;28;20040;-72
2023/01/17 11:01:41;;;;;;;10.30;6.38;;;23.90;44.70;;;;;;5096301;28;20035;-73
2023/01/17 11:04:21;;;;;;;9.68;5.22;;;23.80;42.40;;;;;;5088251;28;20630;-73
2023/01/17 11:07:10;;;;;;;6.88;5.25;;;23.80;43.70;;;;;;5100183;28;20115;-74
2023/01/17 11:09:39;;;;;;;7.68;5.35;;;23.80;43.70;;;;;;5097786;28;20498;-74
2023/01/17 11:12:21;;;;;;;5.82;4.53;;;23.80;43.30;;;;;;5108903;28;20040;-75
2023/01/17 11:15:07;;;;;;;7.93;5.32;;;23.70;45.40;;;;;;5104784;28;20168;-73
2023/01/17 11:17:36;;;;;;;10.00;5.20;;;24.30;51.90;;;;;;5071028;28;20032;-74
2023/01/17 11:20:16;;;;;;;8.48;5.47;;;24.40;46.00;;;;;;5076730;28;20559;-73
2023/01/17 11:22:59;;;;;;;6.93;5.70;;;24.40;42.40;;;;;;5080535;28;20097;-74
2023/01/17 11:25:26;;;;;;;;;;;24.40;41.40;;;;;;5106783;28;20043;-73
2023/01/17 11:28:19;;;;;;;10.27;5.47;;;24.30;40.60;;;;;;5108848;28;20049;-73
2023/01/17 11:30:56;;;;;;;5.88;5.07;;;24.30;42.00;;;;;;5102745;28;20044;-74
2023/01/17 11:33:44;;;;;;;7.82;5.22;;;24.30;40.80;;;;;;5077022;28;20055;-75
2023/01/17 11:36:18;;;;;;;8.27;5.47;;;24.30;40.40;;;;;;5073657;28;20119;-75
2023/01/17 11:39:16;;;;;;;9.13;5.25;;;24.40;41.10;;;;;;5080157;28;20194;-73
2023/01/17 11:41:42;;;;;;;9.55;6.53;;;24.30;41.10;;;;;;5028238;28;20072;-74
2023/01/17 11:44:30;;;;;;;7.55;5.95;;;24.30;49.80;;;;;;5028736;28;20370;-72
2023/01/17 11:47:15;;;;;;;8.43;5.47;;;24.20;52.50;;;;;;5030511;28;20478;-74
2023/01/17 11:49:44;;;;;;;9.48;5.47;;;24.10;54.00;;;;;;5022519;28;20383;-73
2023/01/17 11:52:15;;;;;;;10.80;6.90;;;24.20;54.50;;;;;;5022277;28;20080;-74
2023/01/17 11:54:45;;;;;;;8.05;5.22;;;24.20;55.40;;;;;;5015467;28;20038;-72
2023/01/17 11:57:33;;;;;;;8.73;5.68;;;24.10;55.90;;;;;;5013535;28;20038;-72
2023/01/17 12:00:10;;;;;;;8.05;6.30;;;24.30;56.20;;;;;;4999736;28;20060;-73
2023/01/17 12:03:00;;;;;;;6.57;5.28;;;24.10;54.90;;;;;;5017959;28;20034;-74
2023/01/17 12:05:32;;;;;;;8.32;6.00;;;24.10;55.30;;;;;;5002615;28;20129;-75
2023/01/17 12:08:16;;;;;;;8.02;4.93;;;24.00;54.10;;;;;;5010200;28;20046;-74
2023/01/17 12:10:51;;;;;;;11.95;6.28;;;24.00;57.20;;;;;;5032029;28;20592;-73
2023/01/17 12:16:41;;;;;;;7.38;5.15;;;23.90;57.70;;;;;;5003992;28;20033;-73
2023/01/17 12:19:15;;;;;;;10.25;5.38;;;23.90;56.30;;;;;;5098323;28;20469;-72
2023/01/17 12:22:11;;;;;;;9.98;5.70;;;23.80;57.70;;;;;;5092607;28;20068;-72
2023/01/17 12:25:01;;;;;;;8.90;5.40;;;23.90;57.80;;;;;;5046343;28;20053;-74
2023/01/17 12:27:48;;;;;;;7.97;5.38;;;23.80;56.70;;;;;;5044409;28;20017;-74
2023/01/17 12:30:33;;;;;;;11.00;5.18;;;23.80;57.20;;;;;;5039220;28;20513;-74
2023/01/17 12:33:20;;;;;;;8.85;5.13;;;23.80;57.00;;;;;;5051634;28;20040;-74
2023/01/17 12:36:00;;;;;;;7.50;5.35;;;23.90;57.10;;;;;;5050215;28;20167;-74
2023/01/17 12:38:34;;;;;;;7.25;5.20;;;23.90;57.20;;;;;;5045393;28;20036;-74
2023/01/17 12:41:30;;;;;;;8.57;5.90;;;24.10;52.90;;;;;;5034920;28;20413;-73
2023/01/17 12:43:59;;;;;;;6.93;4.97;;;23.90;56.80;;;;;;5023282;28;20145;-75
2023/01/17 12:46:44;;;;;;;8.75;5.22;;;24.00;57.60;;;;;;5037882;28;20041;-74
2023/01/17 12:49:13;;;;;;;7.05;4.68;;;23.90;57.90;;;;;;5030680;28;20220;-73
2023/01/17 12:51:42;;;;;;;8.25;4.88;;;23.90;57.80;;;;;;5031250;28;20137;-73
2023/01/17 12:54:16;;;;;;;7.38;4.35;;;23.90;57.70;;;;;;5035302;28;20052;-71
2023/01/17 12:57:32;;;;;;;7.13;4.68;;;23.90;57.60;;;;;;5036790;28;20049;-73
2023/01/17 13:00:07;;;;;;;7.03;4.78;;;23.90;56.00;;;;;;4971924;28;20074;-74
2023/01/17 13:02:52;;;;;;;9.60;4.70;;;23.90;58.10;;;;;;5029289;28;20049;-73
2023/01/17 13:05:36;;;;;;;8.00;4.97;;;23.70;58.20;;;;;;5030835;28;20429;-74
2023/01/17 13:08:11;;;;;;;7.70;4.75;;;23.70;58.00;;;;;;5030471;28;20049;-74
2023/01/17 13:10:50;;;;;;;7.68;4.78;;;23.70;58.40;;;;;;5030830;28;20045;-74
2023/01/17 13:13:24;;;;;;;6.65;5.60;;;23.80;58.50;;;;;;5040249;28;20040;-74
2023/01/17 13:15:59;;;;;;;7.70;5.05;;;23.60;58.40;;;;;;5043229;28;20056;-74
2023/01/17 13:18:28;;;;;;;8.90;5.75;;;23.60;58.60;;;;;;5046964;28;20409;-72
2023/01/17 13:21:25;;;;;;;7.45;5.55;;;23.60;58.60;;;;;;5050106;28;20037;-74
2023/01/17 13:24:02;;;;;;;14.25;5.95;;;23.70;58.70;;;;;;5034580;28;20114;-74
2023/01/17 13:26:28;;;;;;;8.25;5.22;;;23.70;58.60;;;;;;5050633;28;20091;-72
2023/01/17 13:29:26;;;;;;;9.75;4.75;;;23.70;58.60;;;;;;5049392;28;20469;-74
2023/01/17 13:32:16;;;;;;;11.68;5.07;;;23.70;58.10;;;;;;5029015;28;20144;-74
2023/01/17 13:35:15;;;;;;;10.57;5.47;;;23.70;58.60;;;;;;5029480;28;20037;-74
2023/01/17 13:37:59;;;;;;;6.60;4.75;;;23.70;58.50;;;;;;5050370;28;20041;-74
2023/01/17 13:40:33;;;;;;;12.90;6.55;;;23.80;58.30;;;;;;5059699;28;20114;-74
2023/01/17 13:43:01;;;;;;;9.57;5.50;;;23.90;57.30;;;;;;5068036;28;20727;-75
2023/01/17 13:45:35;;;;;;;6.00;4.30;;;23.70;58.30;;;;;;5068585;28;20127;-74
2023/01/17 13:48:17;;;;;;;6.15;4.13;;;23.80;58.20;;;;;;5036940;28;20486;-74
2023/01/17 13:51:01;;;;;;;6.55;4.30;;;23.80;58.10;;;;;;5060720;28;20036;-74
2023/01/17 13:53:33;;;;;;;9.13;4.80;;;23.90;58.10;;;;;;5069561;28;20039;-74
2023/01/17 13:56:17;;;;;;;7.07;4.65;;;23.70;58.20;;;;;;5064787;28;20032;-74
2023/01/17 13:58:49;;;;;;;9.30;4.78;;;23.90;58.40;;;;;;5068351;28;20056;-74
2023/01/17 14:01:43;;;;;;;6.85;5.10;;;23.70;58.30;;;;;;5067469;28;20174;-74
2023/01/17 14:04:11;;;;;;;10.25;4.40;;;23.80;56.90;;;;;;5026385;28;20041;-74
2023/01/17 14:06:54;;;;;;;7.90;4.90;;;23.80;57.90;;;;;;5047473;28;20048;-73
2023/01/17 14:09:38;;;;;;;11.07;4.13;;;23.70;58.10;;;;;;5060213;28;20045;-73
2023/01/17 14:12:10;;;;;;;7.22;3.97;;;23.60;58.10;;;;;;5092492;28;20032;-74
2023/01/17 14:14:44;;;;;;;4.97;3.53;;;23.70;58.40;;;;;;5080965;28;20357;-74
2023/01/17 14:17:22;;;;;;;4.45;3.53;;;23.70;58.60;;;;;;5107669;28;20275;-74
2023/01/17 14:20:04;;;;;;;5.85;4.20;;;23.70;58.60;;;;;;5083818;28;20052;-74
2023/01/17 14:22:35;;;;;;;5.28;4.03;;;23.60;58.40;;;;;;5094964;28;20028;-74
2023/01/17 14:25:17;;;;;;;8.48;4.03;;;23.60;58.40;;;;;;5091540;28;20124;-74
2023/01/17 14:27:52;;;;;;;6.32;4.25;;;23.70;58.40;;;;;;5077557;28;20043;-74
2023/01/17 14:30:25;;;;;;;4.40;3.35;;;23.60;58.30;;;;;;5073498;28;20039;-74